createdAt,value
2019-05-22T00:00:13.079Z,30.73
2019-05-22T00:03:00.116Z,30.47
2019-05-22T00:05:49.989Z,31.00
2019-05-22T00:09:25.998Z,29.40
2019-05-22T00:16:38.405Z,32.70
2019-05-22T00:25:56.149Z,37.90
2019-05-22T00:28:57.032Z,44.70
2019-05-22T00:31:34.250Z,42.10
2019-05-22T00:34:08.807Z,45.33
2019-05-22T00:43:13.444Z,57.83
2019-05-22T00:45:43.333Z,56.47
2019-05-22T00:48:25.716Z,59.93
2019-05-22T00:51:31.471Z,59.90
2019-05-22T00:54:38.429Z,68.83
2019-05-22T01:00:34.891Z,59.17
2019-05-22T01:03:19.221Z,55.30
2019-05-22T01:05:50.806Z,55.13
2019-05-22T01:08:28.758Z,53.53
2019-05-22T01:11:02.000Z,50.80
2019-05-22T01:13:41.002Z,43.17
2019-05-22T01:16:14.313Z,55.67
2019-05-22T01:18:45.221Z,52.23
2019-05-22T01:21:21.632Z,49.80
2019-05-22T01:23:53.482Z,43.73
2019-05-22T01:26:25.496Z,46.40
2019-05-22T01:29:00.466Z,40.27
2019-05-22T01:31:35.877Z,44.17
2019-05-22T01:34:19.099Z,34.00
2019-05-22T01:37:17.171Z,41.23
2019-05-22T01:40:05.271Z,35.90
2019-05-22T01:45:44.321Z,35.67
2019-05-22T01:48:25.605Z,33.63
2019-05-22T01:51:16.753Z,31.17
2019-05-22T01:54:05.319Z,30.17
2019-05-22T01:56:35.490Z,31.87
2019-05-22T01:59:07.730Z,29.03
2019-05-22T02:02:08.729Z,28.93
2019-05-22T02:04:45.331Z,33.93
2019-05-22T02:07:28.709Z,29.57
2019-05-22T02:10:07.801Z,30.70
2019-05-22T02:12:50.618Z,30.43
2019-05-22T02:15:21.384Z,35.73
2019-05-22T02:17:56.667Z,29.47
2019-05-22T02:20:42.662Z,28.40
2019-05-22T02:23:14.855Z,25.10
2019-05-22T02:25:45.353Z,26.40
2019-05-22T02:28:17.266Z,26.87
2019-05-22T02:30:50.268Z,24.47
2019-05-22T02:33:22.374Z,21.97
2019-05-22T02:35:53.868Z,22.50
2019-05-22T02:38:37.976Z,20.80
2019-05-22T02:41:09.439Z,24.13
2019-05-22T02:43:39.221Z,22.90
2019-05-22T02:46:09.230Z,21.87
2019-05-22T02:48:42.494Z,19.57
2019-05-22T02:51:21.109Z,17.47
2019-05-22T02:53:57.373Z,20.13
2019-05-22T02:56:28.944Z,19.97
2019-05-22T02:59:16.671Z,20.13
2019-05-22T03:01:46.915Z,15.67
2019-05-22T03:04:20.175Z,14.73
2019-05-22T03:06:53.216Z,12.27
2019-05-22T03:09:24.535Z,12.97
2019-05-22T03:12:03.321Z,12.97
2019-05-22T03:14:37.760Z,12.37
2019-05-22T03:19:54.996Z,10.63
2019-05-22T03:22:31.483Z,10.03
2019-05-22T03:25:05.426Z,15.43
2019-05-22T03:27:40.911Z,13.27
2019-05-22T03:30:30.016Z,10.63
2019-05-22T03:33:02.164Z,9.03
2019-05-22T03:35:35.054Z,9.43
2019-05-22T03:38:05.892Z,7.87
2019-05-22T03:40:37.180Z,12.57
2019-05-22T03:43:20.850Z,8.70
2019-05-22T03:45:51.928Z,8.10
2019-05-22T03:48:23.766Z,6.77
2019-05-22T03:50:58.099Z,10.20
2019-05-22T03:53:29.383Z,11.90
2019-05-22T03:55:59.840Z,8.13
2019-05-22T03:58:43.477Z,8.13
2019-05-22T04:01:27.817Z,6.93
2019-05-22T04:04:02.504Z,6.73
2019-05-22T04:09:38.339Z,5.97
2019-05-22T04:12:10.529Z,7.83
2019-05-22T04:14:42.356Z,9.30
2019-05-22T04:17:16.575Z,11.90
2019-05-22T04:19:50.036Z,16.23
2019-05-22T04:22:22.566Z,21.33
2019-05-22T04:28:20.682Z,17.47
2019-05-22T04:30:51.978Z,19.23
2019-05-22T04:33:22.250Z,23.77
2019-05-22T04:36:10.130Z,23.53
2019-05-22T04:38:53.240Z,24.70
2019-05-22T04:41:24.241Z,25.90
2019-05-22T04:44:05.086Z,23.63
2019-05-22T04:46:34.892Z,21.10
2019-05-22T04:49:25.543Z,23.20
2019-05-22T04:51:57.814Z,25.43
2019-05-22T04:54:29.203Z,25.07
2019-05-22T04:56:59.357Z,24.97
2019-05-22T04:59:49.361Z,26.97
2019-05-22T05:02:08.574Z,27.40
2019-05-22T05:04:50.462Z,27.93
2019-05-22T05:07:24.188Z,32.03
2019-05-22T05:09:55.170Z,28.17
2019-05-22T05:12:24.800Z,27.20
2019-05-22T05:14:56.226Z,24.30
2019-05-22T05:17:40.936Z,26.67
2019-05-22T05:20:35.088Z,26.83
2019-05-22T05:23:19.307Z,25.37
2019-05-22T05:25:55.054Z,18.17
2019-05-22T05:28:24.943Z,23.77
2019-05-22T05:30:57.028Z,18.40
2019-05-22T05:33:30.677Z,17.33
2019-05-22T05:36:34.894Z,20.73
2019-05-22T05:39:10.651Z,15.77
2019-05-22T05:41:40.347Z,16.17
2019-05-22T05:44:11.594Z,13.40
2019-05-22T05:46:47.658Z,13.70
2019-05-22T05:49:20.802Z,17.27
2019-05-22T05:51:55.043Z,13.00
2019-05-22T05:54:25.168Z,19.90
2019-05-22T05:56:55.316Z,13.33
2019-05-22T05:59:28.448Z,16.63
2019-05-22T06:02:02.991Z,15.50
2019-05-22T06:04:35.805Z,16.07
2019-05-22T06:07:25.276Z,16.60
2019-05-22T06:10:50.927Z,14.57
2019-05-22T06:13:24.386Z,19.73
2019-05-22T06:16:47.558Z,21.13
2019-05-22T06:19:17.899Z,21.67
2019-05-22T06:21:51.813Z,20.40
2019-05-22T06:24:28.066Z,21.07
2019-05-22T06:27:26.048Z,20.63
2019-05-22T06:30:06.919Z,21.50
2019-05-22T06:33:17.223Z,19.03
2019-05-22T06:35:48.698Z,18.23
2019-05-22T06:39:17.301Z,21.03
2019-05-22T06:41:48.407Z,17.63
2019-05-22T06:44:32.132Z,17.43
2019-05-22T06:47:02.875Z,18.10
2019-05-22T06:50:06.461Z,18.50
2019-05-22T06:52:44.838Z,17.07
2019-05-22T06:55:29.996Z,19.13
2019-05-22T06:58:06.501Z,18.37
2019-05-22T07:00:42.577Z,14.83
2019-05-22T07:03:38.203Z,19.97
2019-05-22T07:06:24.409Z,14.20
2019-05-22T07:08:56.915Z,17.87
2019-05-22T07:11:27.597Z,18.10
2019-05-22T07:14:16.657Z,15.83
2019-05-22T07:16:41.483Z,11.67
2019-05-22T07:19:25.716Z,14.93
2019-05-22T07:22:13.989Z,16.50
2019-05-22T07:27:43.713Z,12.90
2019-05-22T07:30:57.493Z,13.83
2019-05-22T07:33:03.986Z,16.50
2019-05-22T07:35:49.749Z,13.70
2019-05-22T07:38:25.730Z,16.37
2019-05-22T07:40:56.452Z,15.33
2019-05-22T07:43:35.140Z,14.13
2019-05-22T07:46:24.637Z,15.47
2019-05-22T07:48:58.793Z,15.07
2019-05-22T07:51:56.053Z,14.47
2019-05-22T07:54:43.181Z,14.50
2019-05-22T07:57:21.676Z,13.67
2019-05-22T07:59:54.647Z,15.23
2019-05-22T08:02:31.927Z,12.73
2019-05-22T08:05:03.522Z,15.30
2019-05-22T08:07:36.085Z,10.97
2019-05-22T08:10:08.420Z,12.97
2019-05-22T08:12:39.142Z,12.67
2019-05-22T08:15:20.038Z,13.17
2019-05-22T08:17:50.029Z,9.57
2019-05-22T08:20:20.663Z,14.43
2019-05-22T08:22:54.746Z,11.53
2019-05-22T08:25:28.124Z,10.60
2019-05-22T08:28:10.206Z,10.00
2019-05-22T08:30:38.157Z,12.60
2019-05-22T08:33:12.521Z,12.23
2019-05-22T08:35:45.042Z,9.77
2019-05-22T08:38:17.623Z,12.00
2019-05-22T08:40:48.810Z,8.53
2019-05-22T08:43:22.208Z,9.83
2019-05-22T08:45:52.639Z,6.53
2019-05-22T08:48:24.699Z,9.70
2019-05-22T08:50:55.179Z,12.90
2019-05-22T08:53:25.848Z,10.13
2019-05-22T08:55:56.629Z,10.97
2019-05-22T08:58:27.105Z,10.47
2019-05-22T09:00:57.167Z,9.80
2019-05-22T09:03:27.470Z,5.83
2019-05-22T09:05:57.358Z,8.60
2019-05-22T09:08:27.586Z,9.43
2019-05-22T09:11:04.075Z,8.93
2019-05-22T09:13:32.171Z,4.73
2019-05-22T09:16:03.853Z,5.80
2019-05-22T09:18:34.180Z,7.33
2019-05-22T09:21:04.268Z,8.67
2019-05-22T09:23:35.370Z,5.43
2019-05-22T09:26:06.275Z,7.53
2019-05-22T09:28:36.108Z,6.57
2019-05-22T09:31:06.051Z,5.83
2019-05-22T09:33:37.002Z,4.83
2019-05-22T09:36:08.503Z,4.23
2019-05-22T09:38:39.593Z,6.30
2019-05-22T09:41:17.463Z,5.60
2019-05-22T09:43:47.643Z,5.50
2019-05-22T09:46:17.845Z,7.07
2019-05-22T09:48:47.682Z,6.97
2019-05-22T09:51:20.027Z,3.00
2019-05-22T09:53:50.001Z,3.33
2019-05-22T09:56:20.268Z,5.37
2019-05-22T09:58:50.316Z,5.10
2019-05-22T10:01:20.412Z,4.13
2019-05-22T10:03:50.403Z,6.37
2019-05-22T10:06:21.791Z,5.00
2019-05-22T10:08:51.763Z,6.13
2019-05-22T10:11:22.454Z,4.60
2019-05-22T10:13:52.327Z,6.90
2019-05-22T10:16:22.307Z,6.63
2019-05-22T10:18:53.623Z,5.90
2019-05-22T10:21:24.536Z,4.47
2019-05-22T10:23:54.919Z,6.80
2019-05-22T10:26:24.728Z,6.53
2019-05-22T10:28:57.981Z,5.30
2019-05-22T10:31:27.995Z,7.73
2019-05-22T10:33:57.845Z,8.93
2019-05-22T10:36:28.201Z,6.07
2019-05-22T10:38:58.651Z,5.63
2019-05-22T10:41:33.532Z,8.50
2019-05-22T10:44:04.970Z,6.83
2019-05-22T10:46:35.147Z,9.67
2019-05-22T10:49:05.240Z,8.20
2019-05-22T10:51:34.915Z,9.13
2019-05-22T10:54:05.481Z,6.13
2019-05-22T10:56:45.466Z,12.37
2019-05-22T10:59:17.323Z,11.30
2019-05-22T11:01:47.125Z,9.37
2019-05-22T11:04:19.773Z,8.67
2019-05-22T11:06:51.357Z,9.27
2019-05-22T11:09:21.733Z,8.63
2019-05-22T11:11:54.945Z,11.40
2019-05-22T11:14:26.037Z,20.70
2019-05-22T11:16:57.094Z,9.47
2019-05-22T11:19:27.881Z,10.27
2019-05-22T11:21:57.856Z,10.70
2019-05-22T11:24:28.423Z,10.30
2019-05-22T11:26:58.366Z,15.83
2019-05-22T11:29:28.405Z,12.40
2019-05-22T11:31:58.601Z,9.10
2019-05-22T11:34:28.832Z,11.80
2019-05-22T11:37:00.695Z,13.13
2019-05-22T11:39:39.312Z,10.83
2019-05-22T11:44:46.323Z,9.37
2019-05-22T11:47:17.101Z,14.07
2019-05-22T11:49:46.831Z,18.63
2019-05-22T11:52:17.744Z,10.57
2019-05-22T11:54:47.440Z,13.33
2019-05-22T11:57:18.778Z,11.37
2019-05-22T11:59:49.105Z,16.50
2019-05-22T12:02:19.777Z,18.17
2019-05-22T12:04:51.531Z,10.90
2019-05-22T12:07:22.396Z,10.73
2019-05-22T12:09:52.042Z,19.47
2019-05-22T12:12:23.751Z,15.43
2019-05-22T12:14:53.632Z,13.00
2019-05-22T12:17:37.313Z,12.87
2019-05-22T12:19:55.799Z,16.70
2019-05-22T12:22:25.563Z,21.23
2019-05-22T12:24:55.333Z,16.87
2019-05-22T12:27:26.924Z,16.53
2019-05-22T12:29:56.523Z,16.00
2019-05-22T12:32:26.671Z,18.43
2019-05-22T12:34:56.948Z,21.77
2019-05-22T12:37:28.521Z,19.37
2019-05-22T12:39:59.960Z,16.33
2019-05-22T12:42:30.023Z,21.87
2019-05-22T12:44:59.859Z,20.20
2019-05-22T12:47:30.410Z,17.80
2019-05-22T12:50:00.442Z,21.17
2019-05-22T12:52:30.185Z,21.77
2019-05-22T12:55:00.142Z,19.77
2019-05-22T12:57:29.809Z,21.33
2019-05-22T13:00:02.469Z,27.07
2019-05-22T13:02:33.762Z,21.13
2019-05-22T13:05:04.087Z,24.20
2019-05-22T13:07:34.160Z,20.17
2019-05-22T13:10:05.184Z,22.13
2019-05-22T13:12:35.412Z,22.17
2019-05-22T13:15:09.954Z,21.60
2019-05-22T13:17:38.089Z,21.50
2019-05-22T13:20:10.132Z,24.77
2019-05-22T13:22:51.266Z,21.27
2019-05-22T13:25:27.478Z,21.90
2019-05-22T13:28:06.224Z,22.50
2019-05-22T13:30:45.617Z,23.30
2019-05-22T13:33:23.722Z,20.83
2019-05-22T13:35:54.911Z,23.07
2019-05-22T13:38:52.955Z,26.87
2019-05-22T13:41:30.223Z,25.27
2019-05-22T13:44:00.189Z,20.37
2019-05-22T13:46:30.173Z,19.87
2019-05-22T13:49:02.797Z,20.47
2019-05-22T13:51:32.880Z,23.70
2019-05-22T13:54:02.849Z,20.77
2019-05-22T13:56:53.671Z,23.03
2019-05-22T13:59:36.444Z,22.93
2019-05-22T14:02:14.164Z,22.67
2019-05-22T14:04:58.710Z,22.03
2019-05-22T14:07:25.426Z,20.13
2019-05-22T14:09:55.427Z,25.17
2019-05-22T14:12:25.149Z,29.20
2019-05-22T14:14:54.916Z,21.20
2019-05-22T14:17:24.561Z,24.80
2019-05-22T14:19:54.255Z,24.30
2019-05-22T14:22:24.478Z,24.77
2019-05-22T14:24:54.207Z,35.17
2019-05-22T14:27:25.142Z,21.57
2019-05-22T14:29:55.673Z,25.90
2019-05-22T14:32:29.788Z,22.77
2019-05-22T14:34:57.143Z,27.37
2019-05-22T14:37:26.789Z,26.97
2019-05-22T14:39:56.758Z,27.83
2019-05-22T14:42:27.162Z,26.10
2019-05-22T14:44:56.877Z,24.03
2019-05-22T14:47:27.601Z,24.30
2019-05-22T14:49:57.425Z,25.70
2019-05-22T14:52:27.201Z,21.93
2019-05-22T14:54:57.228Z,23.43
2019-05-22T14:57:27.059Z,25.93
2019-05-22T14:59:57.486Z,22.87
2019-05-22T15:02:27.818Z,22.17
2019-05-22T15:04:58.154Z,19.70
2019-05-22T15:07:27.807Z,20.77
2019-05-22T15:09:57.669Z,29.53
2019-05-22T15:12:29.555Z,20.40
2019-05-22T15:15:00.626Z,27.53
2019-05-22T15:17:32.825Z,25.43
2019-05-22T15:20:02.174Z,27.43
2019-05-22T15:22:33.815Z,20.87
2019-05-22T15:25:05.139Z,24.27
2019-05-22T15:27:37.029Z,17.57
2019-05-22T15:30:08.866Z,29.50
2019-05-22T15:32:48.567Z,22.20
2019-05-22T15:35:23.008Z,23.03
2019-05-22T15:37:54.177Z,23.60
2019-05-22T15:40:24.765Z,19.93
2019-05-22T15:42:55.017Z,20.10
2019-05-22T15:45:30.399Z,22.63
2019-05-22T15:48:05.929Z,21.70
2019-05-22T15:50:37.146Z,21.80
2019-05-22T15:53:15.990Z,27.17
2019-05-22T15:55:47.538Z,20.63
2019-05-22T15:58:18.085Z,23.93
2019-05-22T16:00:48.224Z,24.23
2019-05-22T16:03:21.132Z,24.07
2019-05-22T16:05:53.550Z,20.47
2019-05-22T16:08:23.365Z,20.27
2019-05-22T16:10:53.974Z,22.33
2019-05-22T16:13:24.761Z,26.10
2019-05-22T16:15:56.781Z,25.00
2019-05-22T16:18:32.183Z,29.97
2019-05-22T16:21:03.654Z,22.37
2019-05-22T16:23:37.315Z,22.97
2019-05-22T16:26:08.860Z,22.73
2019-05-22T16:28:40.866Z,21.10
2019-05-22T16:31:13.473Z,19.53
2019-05-22T16:33:45.472Z,19.83
2019-05-22T16:36:15.971Z,23.10
2019-05-22T16:38:47.557Z,21.03
2019-05-22T16:41:17.695Z,24.43
2019-05-22T16:43:50.152Z,22.33
2019-05-22T16:46:20.481Z,24.10
2019-05-22T16:48:50.521Z,22.83
2019-05-22T16:51:21.601Z,21.80
2019-05-22T16:54:01.331Z,19.13
2019-05-22T16:56:39.311Z,21.23
2019-05-22T16:59:15.476Z,20.47
2019-05-22T17:02:04.624Z,17.27
2019-05-22T17:04:40.457Z,19.00
2019-05-22T17:07:23.548Z,22.37
2019-05-22T17:09:55.005Z,20.57
2019-05-22T17:12:32.326Z,17.83
2019-05-22T17:15:02.610Z,18.77
2019-05-22T17:17:33.419Z,14.87
2019-05-22T17:20:06.286Z,14.87
2019-05-22T17:22:36.218Z,16.73
2019-05-22T17:25:07.077Z,15.03
2019-05-22T17:27:37.537Z,12.37
2019-05-22T17:30:09.837Z,12.97
2019-05-22T17:32:40.719Z,14.53
2019-05-22T17:35:13.325Z,21.23
2019-05-22T17:37:44.114Z,14.97
2019-05-22T17:40:17.089Z,13.10
2019-05-22T17:42:47.883Z,12.13
2019-05-22T17:45:20.485Z,14.43
2019-05-22T17:47:52.261Z,13.03
2019-05-22T17:50:26.785Z,13.47
2019-05-22T17:52:55.177Z,15.77
2019-05-22T17:55:26.206Z,11.30
2019-05-22T17:57:56.498Z,11.13
2019-05-22T18:00:30.673Z,17.83
2019-05-22T18:03:01.860Z,9.00
2019-05-22T18:05:31.647Z,13.13
2019-05-22T18:08:02.437Z,9.53
2019-05-22T18:10:40.783Z,13.20
2019-05-22T18:13:10.748Z,15.03
2019-05-22T18:15:40.701Z,12.60
2019-05-22T18:18:11.200Z,10.97
2019-05-22T18:20:43.653Z,9.83
2019-05-22T18:23:12.359Z,7.43
2019-05-22T18:25:42.809Z,10.30
2019-05-22T18:28:13.262Z,11.13
2019-05-22T18:30:43.688Z,6.73
2019-05-22T18:33:13.976Z,12.67
2019-05-22T18:35:43.903Z,9.70
2019-05-22T18:38:13.669Z,14.20
2019-05-22T18:40:43.265Z,8.87
2019-05-22T18:43:13.203Z,9.53
2019-05-22T18:45:44.219Z,10.37
2019-05-22T18:48:16.250Z,13.33
2019-05-22T18:50:47.968Z,8.13
2019-05-22T18:53:24.553Z,11.17
2019-05-22T18:56:12.319Z,12.37
2019-05-22T18:58:44.001Z,6.87
2019-05-22T19:01:16.359Z,12.57
2019-05-22T19:03:44.893Z,12.67
2019-05-22T19:06:28.611Z,10.60
2019-05-22T19:08:47.623Z,11.00
2019-05-22T19:11:17.370Z,10.73
2019-05-22T19:13:47.125Z,7.90
2019-05-22T19:16:16.708Z,8.97
2019-05-22T19:18:46.621Z,11.40
2019-05-22T19:21:16.238Z,9.30
2019-05-22T19:23:45.817Z,10.43
2019-05-22T19:26:15.468Z,12.93
2019-05-22T19:28:45.246Z,7.40
2019-05-22T19:31:15.042Z,9.23
2019-05-22T19:33:44.697Z,5.43
2019-05-22T19:36:14.391Z,7.53
2019-05-22T19:38:44.137Z,6.10
2019-05-22T19:41:14.932Z,7.03
2019-05-22T19:43:45.958Z,10.43
2019-05-22T19:46:17.912Z,7.93
2019-05-22T19:48:47.937Z,5.77
2019-05-22T19:51:20.543Z,9.27
2019-05-22T19:53:51.955Z,5.30
2019-05-22T19:56:41.883Z,11.53
2019-05-22T19:59:12.636Z,5.77
2019-05-22T20:01:45.368Z,9.23
2019-05-22T20:04:15.187Z,4.70
2019-05-22T20:06:45.304Z,6.57
2019-05-22T20:09:15.305Z,15.50
2019-05-22T20:11:45.448Z,6.00
2019-05-22T20:14:16.194Z,6.20
2019-05-22T20:16:47.225Z,6.47
2019-05-22T20:19:18.323Z,7.90
2019-05-22T20:21:50.013Z,6.10
2019-05-22T20:24:21.582Z,8.03
2019-05-22T20:26:52.798Z,13.03
2019-05-22T20:29:25.231Z,8.30
2019-05-22T20:31:55.009Z,6.80
2019-05-22T20:34:24.797Z,9.33
2019-05-22T20:36:54.371Z,5.40
2019-05-22T20:39:24.184Z,9.50
2019-05-22T20:41:54.069Z,6.13
2019-05-22T20:44:23.798Z,5.67
2019-05-22T20:46:53.991Z,5.17
2019-05-22T20:49:23.661Z,8.00
2019-05-22T20:51:53.598Z,8.37
2019-05-22T20:54:24.429Z,4.27
2019-05-22T20:56:54.775Z,11.47
2019-05-22T20:59:25.031Z,5.17
2019-05-22T21:01:55.578Z,8.93
2019-05-22T21:04:27.171Z,7.63
2019-05-22T21:07:01.110Z,7.03
2019-05-22T21:09:32.305Z,6.97
2019-05-22T21:12:04.189Z,5.70
2019-05-22T21:14:34.578Z,9.17
2019-05-22T21:17:05.909Z,9.63
2019-05-22T21:19:36.318Z,9.43
2019-05-22T21:22:19.792Z,5.80
2019-05-22T21:25:00.010Z,5.73
2019-05-22T21:27:38.610Z,8.47
2019-05-22T21:30:20.096Z,10.77
2019-05-22T21:33:04.376Z,8.97
2019-05-22T21:35:52.154Z,8.20
2019-05-22T21:38:32.152Z,9.00
2019-05-22T21:41:12.356Z,7.90
2019-05-22T21:43:44.539Z,8.17
2019-05-22T21:46:34.313Z,6.77
2019-05-22T21:49:04.714Z,7.07
2019-05-22T21:51:35.541Z,6.83
2019-05-22T21:54:08.684Z,6.43
2019-05-22T21:56:39.114Z,7.30
2019-05-22T21:59:09.734Z,9.23
2019-05-22T22:01:48.107Z,8.47
2019-05-22T22:04:32.489Z,8.80
2019-05-22T22:07:03.813Z,6.00
2019-05-22T22:09:33.809Z,9.00
2019-05-22T22:12:04.848Z,9.60
2019-05-22T22:14:35.035Z,7.17
2019-05-22T22:17:05.279Z,6.97
2019-05-22T22:19:35.392Z,4.37
2019-05-22T22:22:05.322Z,9.47
2019-05-22T22:24:35.202Z,8.87
2019-05-22T22:27:06.492Z,7.13
2019-05-22T22:29:36.277Z,9.27
2019-05-22T22:32:10.437Z,6.47
2019-05-22T22:34:45.533Z,5.40
2019-05-22T22:37:17.960Z,8.90
2019-05-22T22:39:52.461Z,7.83
2019-05-22T22:42:24.551Z,3.77
2019-05-22T22:44:57.671Z,6.00
2019-05-22T22:47:41.702Z,7.50
2019-05-22T22:50:13.783Z,5.40
2019-05-22T22:52:45.081Z,5.70
2019-05-22T22:55:17.288Z,7.43
2019-05-22T22:57:50.655Z,10.63
2019-05-22T23:00:26.819Z,9.03
2019-05-22T23:02:58.931Z,7.60
2019-05-22T23:05:28.996Z,6.73
2019-05-22T23:08:00.286Z,7.67
2019-05-22T23:10:30.870Z,6.37
2019-05-22T23:13:01.179Z,6.80
2019-05-22T23:15:31.738Z,13.07
2019-05-22T23:18:04.227Z,9.77
2019-05-22T23:20:34.142Z,6.00
2019-05-22T23:23:02.544Z,9.27
2019-05-22T23:25:33.417Z,6.53
2019-05-22T23:28:04.715Z,6.60
2019-05-22T23:30:34.799Z,5.30
2019-05-22T23:33:04.760Z,6.10
2019-05-22T23:35:35.488Z,5.63
2019-05-22T23:38:05.056Z,5.07
2019-05-22T23:40:36.269Z,7.73
2019-05-22T23:43:07.264Z,6.07
2019-05-22T23:45:37.458Z,7.57
2019-05-22T23:48:15.852Z,4.70
2019-05-22T23:50:47.113Z,7.90
2019-05-22T23:53:18.517Z,9.17
2019-05-22T23:55:48.606Z,7.83
2019-05-22T23:58:20.011Z,9.83
